Das aktuelle Wetter und Webcams in Palma De Mallorca

Wetterbericht für Palma De Mallorca
Temperature: 15 °C
aktualisiert am: Monday, 27. 03. 2017, at: 8:00:00 GMT
Temperatur: 15° C / (59° F)
Taupunkt 9° C / (48.2° F) leicht bewölkt @ 2000 meter<br>bewölkt @ 6500 meter<br>
Luftfeuchtigkeit: 67 %
Wind: 8 knots, from: E N E
Wolken: leicht bewölkt @ 2000 meter
bewölkt @ 6500 meter
Niederschlag: none  
Metar Data : 2017/03/27 08:00 LEPA 270800Z 06008KT 9999 FEW020 SCT065 15/09 Q1018 NOSIG

Wetterberichte aller Inseln:

   

Sprache ändern     Change language     cambiar idioma


Webcams in Palma De Mallorca

Dorint Royal Golfresort & Spa Camp de Mar/Mallorca.   Iberostar Pinos Park Font De Sa Cala
mallorca   mallorca
Palma de Mallorca   El Arenal
  mallorca

Wissenswertes über Palma De Mallorca

| Los Cristianos | Playa Las Vistas | Reveron Plaza | Playa Fañabe | Alta Amadores | | Puerto Rico | La Jandia | ΘΕΛηΜα |